Minneapolis, Minnesota
Current Conditions -  °F | °C
As of 11:53 PM on Sunday 19 Oct 2014 (Local Time) from KMSP Reporting Station
Clear Clear  
Wind Chill: 55°   Ceiling: Unl
Heat Index: 55°   Visibility: 10mi
Dew Point: 42°   Wind: 12mph
Humidity: 62%   Direction: 320°NW
Pressure: 29.86"   Gusts: NA
Location:  44.98°N, 93.26°W
Report Text: KMSP 200453Z 32010KT 10SM CLR 13/06 A2986 RMK AO2 SLP112 T01280056
Loading
Personal Weather Stations






























Interactive Weather Map New forecast layout! Learn more

10-Day Weather Forecast

Advertisements
Track Severe Weather on mobile